Time;durP1;ratioP1;P1;durP2;ratioP2;P2;SDS_P1;SDS_P2;PMS_P1;PMS_P2;Temp;Humidity;BMP_temperature;BMP_pressure;BME280_temperature;BME280_humidity;BME280_pressure;Samples;Min_cycle;Max_cycle;Signal;HPM_P1;HPM_P2
2021/11/28 00:02:20;;;;;;;22.00;13.18;;;7.10;98.10;;;;;;4932129;29;20039;-62
2021/11/28 00:04:51;;;;;;;22.05;14.40;;;7.20;98.00;;;;;;4931776;29;20451;-62
2021/11/28 00:10:43;;;;;;;21.20;12.75;;;7.10;98.10;;;;;;4933538;29;20134;-62
2021/11/28 00:15:01;;;;;;;20.40;13.05;;;6.90;98.10;;;;;;4931846;29;20057;-62
2021/11/28 00:17:27;;;;;;;23.60;14.48;;;7.00;98.10;;;;;;4930407;29;20094;-64
2021/11/28 00:19:52;;;;;;;22.88;13.90;;;6.90;98.10;;;;;;4933075;29;20032;-62
2021/11/28 00:22:18;;;;;;;22.20;14.40;;;6.90;98.10;;;;;;4931014;29;20090;-63
2021/11/28 00:24:44;;;;;;;24.45;14.45;;;6.80;98.10;;;;;;4933417;29;20083;-61
2021/11/28 00:27:10;;;;;;;20.90;13.38;;;6.90;98.10;;;;;;4932128;29;20040;-62
2021/11/28 00:29:36;;;;;;;20.17;12.32;;;6.90;98.00;;;;;;4931670;29;20054;-62
2021/11/28 00:32:02;;;;;;;20.60;12.82;;;6.90;98.00;;;;;;4932163;29;20054;-62
2021/11/28 00:34:27;;;;;;;20.70;12.68;;;6.90;98.00;;;;;;4933636;29;20035;-62
2021/11/28 00:36:53;;;;;;;17.95;12.63;;;6.90;97.90;;;;;;4931850;29;20039;-62
2021/11/28 00:39:19;;;;;;;20.65;12.48;;;6.80;97.90;;;;;;4932466;29;20039;-62
2021/11/28 00:41:45;;;;;;;16.17;11.00;;;6.80;97.90;;;;;;4931486;29;20035;-62
2021/11/28 00:44:11;;;;;;;18.95;12.25;;;6.80;97.90;;;;;;4931298;29;20027;-62
2021/11/28 00:46:38;;;;;;;18.70;12.18;;;6.80;97.90;;;;;;4930873;29;19918;-62
2021/11/28 00:49:11;;;;;;;17.10;11.73;;;6.80;97.90;;;;;;4933839;29;20332;-62
2021/11/28 00:51:48;;;;;;;18.40;12.10;;;6.80;98.00;;;;;;4926528;29;20040;-62
2021/11/28 00:54:16;;;;;;;21.65;11.90;;;6.70;97.90;;;;;;4932624;29;20047;-61
2021/11/28 00:56:42;;;;;;;21.88;13.07;;;6.70;98.00;;;;;;4934415;29;20040;-61
2021/11/28 00:59:08;;;;;;;19.50;12.38;;;6.70;98.10;;;;;;4936344;29;20036;-61
2021/11/28 01:01:34;;;;;;;18.08;12.07;;;6.70;98.10;;;;;;4933300;29;20447;-62
2021/11/28 01:04:01;;;;;;;19.20;11.80;;;6.70;98.10;;;;;;4936232;29;20063;-62
2021/11/28 01:06:27;;;;;;;17.45;11.70;;;6.70;98.20;;;;;;4947912;29;20055;-62
2021/11/28 01:08:53;;;;;;;21.45;12.60;;;6.70;98.30;;;;;;4935288;29;20023;-62
2021/11/28 01:11:20;;;;;;;18.63;11.57;;;6.70;98.20;;;;;;4950090;29;20032;-62
2021/11/28 01:13:46;;;;;;;18.75;11.30;;;6.60;98.20;;;;;;4936005;29;20028;-62
2021/11/28 01:16:12;;;;;;;20.23;12.30;;;6.60;98.20;;;;;;4948327;28;20479;-62
2021/11/28 01:18:38;;;;;;;18.42;11.25;;;6.60;98.30;;;;;;4935029;29;20114;-62
2021/11/28 01:21:04;;;;;;;18.00;11.65;;;6.60;98.40;;;;;;4934622;29;20479;-62
2021/11/28 01:23:30;;;;;;;21.35;11.88;;;6.60;98.40;;;;;;4936434;29;20035;-63
2021/11/28 01:25:56;;;;;;;17.20;11.20;;;6.60;98.40;;;;;;4932968;29;20035;-62
2021/11/28 01:28:22;;;;;;;17.77;11.48;;;6.60;98.40;;;;;;4934756;29;20066;-62
2021/11/28 01:30:47;;;;;;;17.65;12.00;;;6.50;98.40;;;;;;4935084;29;20490;-62
2021/11/28 01:33:13;;;;;;;18.17;11.55;;;6.60;98.50;;;;;;4933858;29;20039;-62
2021/11/28 01:35:39;;;;;;;18.70;12.40;;;6.60;98.40;;;;;;4934526;29;20070;-62
2021/11/28 01:38:05;;;;;;;19.10;11.00;;;6.60;98.40;;;;;;4936372;29;20074;-61
2021/11/28 01:40:31;;;;;;;19.33;11.95;;;6.60;98.40;;;;;;4934547;29;20035;-61
2021/11/28 01:43:09;;;;;;;17.13;10.57;;;6.60;98.40;;;;;;4934419;29;20028;-62
2021/11/28 01:45:35;;;;;;;18.13;12.10;;;6.50;98.50;;;;;;4934043;29;20051;-61
2021/11/28 01:48:04;;;;;;;19.00;11.05;;;6.60;98.50;;;;;;4934232;29;20039;-62
2021/11/28 01:50:32;;;;;;;19.30;11.77;;;6.50;98.50;;;;;;4933669;29;20039;-62
2021/11/28 01:52:59;;;;;;;18.08;11.02;;;6.60;98.50;;;;;;4934855;29;20626;-62
2021/11/28 01:55:28;;;;;;;19.98;11.93;;;6.50;98.50;;;;;;4934550;29;20079;-62
2021/11/28 01:57:55;;;;;;;16.58;10.35;;;6.60;98.50;;;;;;4949345;29;20042;-62
2021/11/28 02:00:28;;;;;;;15.73;10.57;;;6.60;98.50;;;;;;4933905;29;20024;-62
2021/11/28 02:02:54;;;;;;;16.55;10.98;;;6.60;98.40;;;;;;4928687;29;20122;-62
2021/11/28 02:05:21;;;;;;;15.68;11.10;;;6.60;98.40;;;;;;4929381;29;20499;-62
2021/11/28 02:07:47;;;;;;;17.15;10.35;;;6.70;98.40;;;;;;4933839;29;20031;-62
2021/11/28 02:10:14;;;;;;;17.90;10.60;;;6.70;98.50;;;;;;4934015;29;20034;-62
2021/11/28 02:12:40;;;;;;;14.95;10.27;;;6.70;98.40;;;;;;4935096;29;20171;-61
2021/11/28 02:15:08;;;;;;;15.05;10.40;;;6.70;98.60;;;;;;4932992;29;20111;-62
2021/11/28 02:17:33;;;;;;;16.35;11.32;;;6.80;98.40;;;;;;4935135;29;20042;-62
2021/11/28 02:19:59;;;;;;;16.35;10.50;;;6.80;98.50;;;;;;4932737;29;20032;-63
2021/11/28 02:22:25;;;;;;;16.30;10.32;;;6.70;98.50;;;;;;4933169;29;20042;-63
2021/11/28 02:24:51;;;;;;;15.55;10.43;;;6.80;98.50;;;;;;4935014;29;20044;-62
2021/11/28 02:27:17;;;;;;;15.02;10.13;;;6.80;98.50;;;;;;4933751;29;20027;-63
2021/11/28 02:29:44;;;;;;;14.20;10.23;;;6.80;98.50;;;;;;4932042;29;20039;-63
2021/11/28 02:32:10;;;;;;;15.43;11.25;;;6.80;98.50;;;;;;4933824;29;20036;-62
2021/11/28 02:34:37;;;;;;;17.85;10.27;;;6.80;98.50;;;;;;4931159;29;20023;-62
2021/11/28 02:37:03;;;;;;;15.73;11.00;;;6.80;98.70;;;;;;4931811;29;20293;-62
2021/11/28 02:39:48;;;;;;;14.38;9.80;;;6.80;98.50;;;;;;4935357;29;20054;-63
2021/11/28 02:42:18;;;;;;;15.90;10.88;;;6.80;98.50;;;;;;4932886;29;20483;-63
2021/11/28 02:44:44;;;;;;;14.48;10.48;;;6.80;98.50;;;;;;4933259;29;20122;-63
2021/11/28 02:47:10;;;;;;;15.40;10.73;;;6.80;98.50;;;;;;4933032;29;20056;-62
2021/11/28 02:49:36;;;;;;;17.60;9.73;;;6.90;98.50;;;;;;4933740;29;20035;-62
2021/11/28 02:52:02;;;;;;;15.35;10.20;;;6.90;98.50;;;;;;4923253;29;20475;-63
2021/11/28 02:54:28;;;;;;;15.13;10.23;;;6.90;98.50;;;;;;4933523;29;20066;-62
2021/11/28 02:56:53;;;;;;;14.45;9.75;;;6.90;98.40;;;;;;4931690;29;20027;-62
2021/11/28 02:59:19;;;;;;;14.95;10.55;;;6.90;98.40;;;;;;4918038;29;20099;-62
2021/11/28 03:01:45;;;;;;;14.38;9.50;;;6.90;98.30;;;;;;4933439;29;20479;-62
2021/11/28 03:04:11;;;;;;;16.05;10.20;;;6.90;98.40;;;;;;4933521;29;20536;-62
2021/11/28 03:06:37;;;;;;;12.85;9.25;;;7.00;98.40;;;;;;4932919;29;20098;-63
2021/11/28 03:09:04;;;;;;;14.15;9.80;;;6.90;98.40;;;;;;4931224;29;20038;-63
2021/11/28 03:11:29;;;;;;;13.85;9.60;;;6.90;98.30;;;;;;4931938;29;20118;-62
2021/11/28 03:13:55;;;;;;;15.18;10.00;;;6.90;98.20;;;;;;4934366;29;20107;-63
2021/11/28 03:16:23;;;;;;;13.85;10.18;;;6.90;98.20;;;;;;4932812;29;20384;-62
2021/11/28 03:18:51;;;;;;;13.60;9.52;;;6.90;98.20;;;;;;4933354;29;20573;-63
2021/11/28 03:21:23;;;;;;;13.40;9.90;;;6.90;98.20;;;;;;4932699;29;20080;-62
2021/11/28 03:23:51;;;;;;;14.50;10.05;;;6.90;98.20;;;;;;4932532;29;20071;-62
2021/11/28 03:26:18;;;;;;;16.02;10.13;;;6.80;98.20;;;;;;4930552;29;20046;-62
2021/11/28 03:28:48;;;;;;;13.90;9.90;;;6.90;98.20;;;;;;4933446;29;20027;-62
2021/11/28 03:31:14;;;;;;;16.45;10.02;;;6.90;98.20;;;;;;4947552;29;20031;-63
2021/11/28 03:33:41;;;;;;;13.90;9.88;;;6.90;98.20;;;;;;4933805;29;20028;-63
2021/11/28 03:36:09;;;;;;;15.43;9.88;;;6.90;98.10;;;;;;4932250;29;20027;-62
2021/11/28 03:38:37;;;;;;;14.00;9.68;;;6.90;98.40;;;;;;4932942;29;20066;-62
2021/11/28 03:41:04;;;;;;;12.80;9.40;;;6.90;98.10;;;;;;4928838;29;20028;-62
2021/11/28 03:43:30;;;;;;;13.73;9.75;;;6.90;98.10;;;;;;4915203;29;20032;-62
2021/11/28 03:45:55;;;;;;;14.38;10.15;;;6.90;98.10;;;;;;4915395;29;20102;-62
2021/11/28 03:48:21;;;;;;;12.20;8.98;;;6.90;98.00;;;;;;4933672;29;20190;-62
2021/11/28 03:50:47;;;;;;;14.95;9.40;;;6.80;98.00;;;;;;4932667;29;20032;-62
2021/11/28 03:53:13;;;;;;;15.60;10.07;;;6.70;98.00;;;;;;4932553;29;20040;-62
2021/11/28 03:55:39;;;;;;;17.42;9.90;;;6.70;98.00;;;;;;4933299;29;20074;-62
2021/11/28 03:58:06;;;;;;;14.02;9.43;;;6.70;98.10;;;;;;4927734;29;20126;-62
2021/11/28 04:00:32;;;;;;;13.90;9.20;;;6.70;98.10;;;;;;4933615;29;20024;-62
2021/11/28 04:02:58;;;;;;;14.13;10.10;;;6.70;98.10;;;;;;4933013;29;20047;-62
2021/11/28 04:05:24;;;;;;;14.70;9.73;;;6.70;98.10;;;;;;4932308;29;20483;-62
2021/11/28 04:07:50;;;;;;;12.57;8.93;;;6.70;98.00;;;;;;4932472;29;20043;-62
2021/11/28 04:10:15;;;;;;;14.52;9.82;;;6.70;98.00;;;;;;4933472;29;20032;-62
2021/11/28 04:12:41;;;;;;;12.63;9.68;;;6.70;98.00;;;;;;4930253;29;20036;-62
2021/11/28 04:15:08;;;;;;;14.15;10.38;;;6.70;98.00;;;;;;4932987;29;20039;-62
2021/11/28 04:17:33;;;;;;;13.82;9.00;;;6.70;97.90;;;;;;4931514;29;20024;-62
2021/11/28 04:20:00;;;;;;;13.18;9.15;;;6.70;97.90;;;;;;4932646;29;20372;-62
2021/11/28 04:22:25;;;;;;;14.13;10.40;;;6.60;97.90;;;;;;4932204;29;20027;-62
2021/11/28 04:24:52;;;;;;;14.00;9.13;;;6.60;97.90;;;;;;4933662;29;20032;-62
2021/11/28 04:27:18;;;;;;;14.45;9.45;;;6.60;97.80;;;;;;4931240;29;20035;-62
2021/11/28 04:29:43;;;;;;;12.80;9.43;;;6.60;97.80;;;;;;4934861;29;20118;-62
2021/11/28 04:32:09;;;;;;;13.43;9.10;;;6.50;97.70;;;;;;4931250;29;20534;-62
2021/11/28 04:34:35;;;;;;;13.35;8.65;;;6.50;97.60;;;;;;4932957;29;20043;-61
2021/11/28 04:37:00;;;;;;;14.48;8.95;;;6.50;97.60;;;;;;4934662;29;20027;-62
2021/11/28 04:39:26;;;;;;;13.32;8.57;;;6.40;97.50;;;;;;4937399;29;20038;-62
2021/11/28 04:41:52;;;;;;;12.85;8.18;;;6.40;97.50;;;;;;4934433;29;20382;-62
2021/11/28 04:44:18;;;;;;;14.07;8.90;;;6.30;97.50;;;;;;4935831;29;20035;-62
2021/11/28 04:46:44;;;;;;;12.88;9.07;;;6.30;97.40;;;;;;4934417;29;20499;-62
2021/11/28 04:49:10;;;;;;;14.70;8.63;;;6.20;97.60;;;;;;4935874;29;20031;-62
2021/11/28 04:51:36;;;;;;;13.85;8.90;;;6.20;97.40;;;;;;4934636;29;20042;-62
2021/11/28 04:54:02;;;;;;;14.07;9.75;;;6.10;97.50;;;;;;4936782;29;20031;-62
2021/11/28 04:56:27;;;;;;;12.15;8.07;;;6.10;97.50;;;;;;4934836;29;20028;-62
2021/11/28 04:58:55;;;;;;;13.75;9.90;;;6.00;97.50;;;;;;4936504;29;20471;-62
2021/11/28 05:01:23;;;;;;;14.38;9.23;;;5.90;97.50;;;;;;4933865;29;20079;-62
2021/11/28 05:03:49;;;;;;;12.73;8.43;;;5.90;97.60;;;;;;4935489;29;20056;-62
2021/11/28 05:06:15;;;;;;;14.98;9.65;;;5.80;97.60;;;;;;4934572;29;20497;-62
2021/11/28 05:08:41;;;;;;;13.27;9.27;;;5.80;97.70;;;;;;4935305;29;20039;-62
2021/11/28 05:11:06;;;;;;;13.48;9.18;;;5.70;97.70;;;;;;4934610;29;20031;-62
2021/11/28 05:13:32;;;;;;;15.02;8.85;;;5.70;97.70;;;;;;4936877;29;20040;-62
2021/11/28 05:15:57;;;;;;;15.82;10.73;;;5.70;97.70;;;;;;4933904;29;20094;-62
2021/11/28 05:18:23;;;;;;;15.55;9.18;;;5.60;97.70;;;;;;4934846;29;20020;-62
2021/11/28 05:20:49;;;;;;;12.93;8.55;;;5.60;97.80;;;;;;4935694;29;20043;-62
2021/11/28 05:23:15;;;;;;;13.93;9.43;;;5.60;97.80;;;;;;4935420;29;20058;-62
2021/11/28 05:25:41;;;;;;;14.63;9.73;;;5.50;97.80;;;;;;4934306;29;20052;-62
2021/11/28 05:28:09;;;;;;;12.68;7.95;;;5.50;97.70;;;;;;4933278;29;20027;-62
2021/11/28 05:30:35;;;;;;;14.70;8.98;;;5.50;97.70;;;;;;4935905;29;20043;-62
2021/11/28 05:33:01;;;;;;;13.73;9.65;;;5.50;97.70;;;;;;4932826;29;20063;-62
2021/11/28 05:35:27;;;;;;;14.75;9.65;;;5.50;97.70;;;;;;4935917;29;20490;-62
2021/11/28 05:37:53;;;;;;;13.27;9.55;;;5.40;97.70;;;;;;4935103;29;20055;-61
2021/11/28 05:40:19;;;;;;;14.02;9.38;;;5.30;97.70;;;;;;4935814;29;20115;-62
2021/11/28 05:42:53;;;;;;;15.30;9.50;;;5.30;97.80;;;;;;4934215;29;20114;-63
2021/11/28 05:45:20;;;;;;;17.80;9.85;;;5.30;97.80;;;;;;4917203;29;20484;-62
2021/11/28 05:47:47;;;;;;;14.55;9.52;;;5.20;97.80;;;;;;4930127;29;20134;-63
2021/11/28 05:50:13;;;;;;;16.77;10.77;;;5.20;97.80;;;;;;4948453;29;20031;-62
2021/11/28 05:52:39;;;;;;;14.90;10.05;;;5.20;97.80;;;;;;4932617;29;20394;-62
2021/11/28 05:55:06;;;;;;;15.60;9.80;;;5.20;97.90;;;;;;4935845;29;20028;-62
2021/11/28 05:57:31;;;;;;;15.10;9.27;;;5.10;97.80;;;;;;4933939;29;20027;-63
2021/11/28 05:59:57;;;;;;;14.43;10.13;;;5.00;97.80;;;;;;4934668;29;20020;-63
2021/11/28 06:02:23;;;;;;;14.30;9.25;;;5.00;97.90;;;;;;4933826;29;20024;-62
2021/11/28 06:04:48;;;;;;;15.98;10.63;;;4.90;97.90;;;;;;4932897;29;20043;-62
2021/11/28 06:07:14;;;;;;;15.70;10.30;;;4.90;97.90;;;;;;4934238;29;20036;-62
2021/11/28 06:09:40;;;;;;;17.45;10.93;;;4.90;97.90;;;;;;4935601;29;20517;-62
2021/11/28 06:12:06;;;;;;;17.38;10.57;;;4.90;97.90;;;;;;4933750;29;20054;-62
2021/11/28 06:14:31;;;;;;;13.95;9.70;;;4.80;98.00;;;;;;4933436;29;20032;-62
2021/11/28 06:16:57;;;;;;;19.63;10.32;;;4.80;98.00;;;;;;4942443;28;20187;-63
2021/11/28 06:19:23;;;;;;;16.13;10.15;;;4.80;98.00;;;;;;4926726;29;20411;-63
2021/11/28 06:21:48;;;;;;;16.35;10.15;;;4.70;98.10;;;;;;4932520;29;20095;-63
2021/11/28 06:24:15;;;;;;;15.27;10.52;;;4.70;98.00;;;;;;4935013;29;20027;-63
2021/11/28 06:26:41;;;;;;;17.15;10.55;;;4.60;98.00;;;;;;4933949;29;20050;-63
2021/11/28 06:29:06;;;;;;;15.32;9.73;;;4.70;98.00;;;;;;4933876;29;20035;-63
2021/11/28 06:31:32;;;;;;;15.85;9.73;;;4.70;98.00;;;;;;4933470;29;20044;-63
2021/11/28 06:33:58;;;;;;;18.13;10.88;;;4.70;98.00;;;;;;4935037;29;20062;-62
2021/11/28 06:36:23;;;;;;;15.00;9.48;;;4.60;98.00;;;;;;4933139;29;20110;-63
2021/11/28 06:38:49;;;;;;;16.55;10.32;;;4.60;98.00;;;;;;4933188;29;20042;-63
2021/11/28 06:41:15;;;;;;;17.50;10.70;;;4.60;98.00;;;;;;4933126;29;20415;-63
2021/11/28 06:43:42;;;;;;;17.73;9.90;;;4.60;98.00;;;;;;4933703;29;20059;-63
2021/11/28 06:46:07;;;;;;;13.35;9.13;;;4.60;98.00;;;;;;4931485;29;20361;-63
2021/11/28 06:48:34;;;;;;;16.60;9.95;;;4.50;98.00;;;;;;4932647;29;20047;-63
2021/11/28 06:51:00;;;;;;;18.45;11.32;;;4.60;98.00;;;;;;4931769;29;22283;-63
2021/11/28 06:53:25;;;;;;;14.63;9.70;;;4.60;98.10;;;;;;4946074;28;20028;-63
2021/11/28 06:55:51;;;;;;;17.70;10.85;;;4.50;98.00;;;;;;4923966;29;20094;-63
2021/11/28 06:58:17;;;;;;;15.73;9.88;;;4.50;98.10;;;;;;4933064;29;20422;-63
2021/11/28 07:00:43;;;;;;;15.43;9.73;;;4.40;98.10;;;;;;4933973;29;20192;-63
2021/11/28 07:03:09;;;;;;;16.60;10.07;;;4.40;98.10;;;;;;4933883;29;20097;-63
2021/11/28 07:05:35;;;;;;;17.20;9.77;;;4.40;98.10;;;;;;4933327;29;20051;-63
2021/11/28 07:08:00;;;;;;;17.10;9.77;;;4.40;98.10;;;;;;4931408;29;20480;-62
2021/11/28 07:10:26;;;;;;;16.48;9.80;;;4.40;98.00;;;;;;4931163;29;20167;-64
2021/11/28 07:12:52;;;;;;;14.48;9.35;;;4.40;98.00;;;;;;4927149;29;20044;-63
2021/11/28 07:15:17;;;;;;;21.77;12.23;;;4.40;98.00;;;;;;4933059;29;20032;-63
2021/11/28 07:17:43;;;;;;;16.88;9.65;;;4.40;98.10;;;;;;4928310;29;20048;-63
2021/11/28 07:20:09;;;;;;;17.80;10.50;;;4.40;98.10;;;;;;4923276;29;20042;-63
2021/11/28 07:22:35;;;;;;;16.90;9.73;;;4.40;98.10;;;;;;4937546;28;20084;-63
2021/11/28 07:25:01;;;;;;;16.08;9.85;;;4.40;98.10;;;;;;4928107;29;20103;-63
2021/11/28 07:27:27;;;;;;;15.88;9.35;;;4.40;98.10;;;;;;4926958;29;20558;-63
2021/11/28 07:29:55;;;;;;;16.00;9.80;;;4.30;98.10;;;;;;4923390;29;20027;-63
2021/11/28 07:32:21;;;;;;;15.50;9.73;;;4.30;98.10;;;;;;4922062;29;20438;-62
2021/11/28 07:34:46;;;;;;;16.17;9.95;;;4.30;98.10;;;;;;4923856;29;20028;-63
2021/11/28 07:37:12;;;;;;;17.00;10.23;;;4.20;98.10;;;;;;4938014;28;20498;-62
2021/11/28 07:39:38;;;;;;;18.63;9.82;;;4.20;98.10;;;;;;4926472;29;20078;-62
2021/11/28 07:42:04;;;;;;;16.88;10.43;;;4.20;98.20;;;;;;4926539;29;20043;-62
2021/11/28 07:44:29;;;;;;;16.08;10.38;;;4.20;98.20;;;;;;4923717;29;20495;-62
2021/11/28 07:46:55;;;;;;;20.15;10.25;;;4.20;98.20;;;;;;4923874;29;20449;-62
2021/11/28 07:49:22;;;;;;;16.42;10.90;;;4.20;98.20;;;;;;4921484;29;20028;-62
2021/11/28 07:51:48;;;;;;;17.50;10.00;;;4.20;98.20;;;;;;4926178;29;20040;-63
2021/11/28 07:54:14;;;;;;;21.25;10.38;;;4.20;98.20;;;;;;4922148;29;20031;-62
2021/11/28 07:56:39;;;;;;;18.08;11.32;;;4.20;98.20;;;;;;4919771;29;20483;-63
2021/11/28 07:59:05;;;;;;;19.20;11.35;;;4.20;98.20;;;;;;4926312;29;20039;-63
2021/11/28 08:01:31;;;;;;;19.30;9.75;;;4.20;98.20;;;;;;4925424;29;20078;-63
2021/11/28 08:03:57;;;;;;;20.90;10.95;;;4.20;98.30;;;;;;4926830;29;20086;-63
2021/11/28 08:06:23;;;;;;;18.63;11.18;;;4.30;98.30;;;;;;4923865;29;20052;-63
2021/11/28 08:08:48;;;;;;;19.05;11.27;;;4.30;98.30;;;;;;4924402;29;20127;-62
2021/11/28 08:11:15;;;;;;;15.85;10.50;;;4.30;98.30;;;;;;4925031;29;20036;-62
2021/11/28 08:13:40;;;;;;;17.05;10.57;;;4.40;98.30;;;;;;4931642;29;20035;-62
2021/11/28 08:16:06;;;;;;;18.20;11.20;;;4.40;98.30;;;;;;4927621;29;20024;-62
2021/11/28 08:18:32;;;;;;;18.23;11.90;;;4.40;98.30;;;;;;4922409;29;20031;-63
2021/11/28 08:20:57;;;;;;;18.05;11.07;;;4.40;98.20;;;;;;4931428;29;20059;-61
2021/11/28 08:23:25;;;;;;;16.90;11.07;;;4.50;98.30;;;;;;4933656;29;20027;-61
2021/11/28 08:25:51;;;;;;;16.40;10.07;;;4.50;98.20;;;;;;4937731;29;20040;-61
2021/11/28 08:28:17;;;;;;;15.25;10.30;;;4.50;98.10;;;;;;4931438;29;20026;-61
2021/11/28 08:30:42;;;;;;;19.95;10.65;;;4.50;98.10;;;;;;4927599;29;20118;-61
2021/11/28 08:33:09;;;;;;;16.05;9.50;;;4.50;98.30;;;;;;4924484;29;20279;-61
2021/11/28 08:35:35;;;;;;;17.98;10.90;;;4.60;98.10;;;;;;4923929;29;20036;-61
2021/11/28 08:38:01;;;;;;;17.60;10.70;;;4.60;98.10;;;;;;4925420;29;20085;-62
2021/11/28 08:40:27;;;;;;;16.98;9.52;;;4.60;98.00;;;;;;4923412;29;20035;-63
2021/11/28 08:42:53;;;;;;;17.25;10.57;;;4.60;98.00;;;;;;4923567;29;20035;-63
2021/11/28 08:45:19;;;;;;;16.80;10.13;;;4.70;97.90;;;;;;4928381;29;20074;-63
2021/11/28 08:47:47;;;;;;;18.02;11.02;;;4.60;97.90;;;;;;4885636;29;1135473;-63
2021/11/28 08:50:14;;;;;;;16.65;10.20;;;4.70;97.90;;;;;;4937830;29;20122;-63
2021/11/28 08:52:43;;;;;;;18.23;10.93;;;4.70;97.90;;;;;;4933340;29;20039;-63
2021/11/28 08:55:09;;;;;;;17.33;10.57;;;4.70;97.90;;;;;;4933390;29;20042;-63
2021/11/28 08:57:35;;;;;;;15.85;9.98;;;4.70;97.90;;;;;;4933582;29;20031;-63
2021/11/28 09:00:07;;;;;;;16.75;10.05;;;4.70;97.90;;;;;;4927700;29;20031;-63
2021/11/28 09:02:32;;;;;;;17.10;11.32;;;4.80;97.90;;;;;;4928116;29;20074;-63
2021/11/28 09:04:58;;;;;;;21.15;11.00;;;4.80;97.90;;;;;;4927266;29;20071;-63
2021/11/28 09:07:24;;;;;;;13.93;9.32;;;4.90;97.90;;;;;;4926797;29;20039;-63
2021/11/28 09:09:49;;;;;;;15.93;10.55;;;4.90;97.80;;;;;;4927535;29;20075;-63
2021/11/28 09:12:15;;;;;;;22.73;14.35;;;4.90;97.70;;;;;;4926882;29;20043;-62
2021/11/28 09:14:41;;;;;;;18.17;11.63;;;4.90;97.70;;;;;;4922872;29;20031;-62
2021/11/28 09:17:06;;;;;;;15.00;9.82;;;5.00;97.80;;;;;;4929134;29;20118;-63
2021/11/28 09:22:09;;;;;;;17.75;11.60;;;5.00;97.70;;;;;;4927168;29;20042;-63
2021/11/28 09:24:38;;;;;;;16.75;9.35;;;5.00;97.70;;;;;;4929411;29;20110;-62
2021/11/28 09:27:14;;;;;;;14.88;8.75;;;5.10;97.70;;;;;;4933337;29;20162;-63
2021/11/28 09:29:45;;;;;;;16.95;9.55;;;5.10;97.60;;;;;;4933273;29;20031;-63
2021/11/28 09:32:13;;;;;;;14.65;8.52;;;5.10;97.60;;;;;;4926594;28;20042;-63
2021/11/28 09:34:39;;;;;;;13.68;8.68;;;5.10;97.60;;;;;;4930506;29;20043;-62
2021/11/28 09:37:08;;;;;;;13.48;9.23;;;5.20;97.60;;;;;;4922832;29;20034;-62
2021/11/28 09:39:35;;;;;;;15.55;9.65;;;5.20;97.60;;;;;;4932423;29;20039;-62
2021/11/28 09:42:04;;;;;;;18.00;10.07;;;5.20;97.60;;;;;;4925658;29;20024;-63
2021/11/28 09:44:33;;;;;;;15.85;9.40;;;5.30;97.60;;;;;;4925302;29;20045;-62
2021/11/28 09:47:00;;;;;;;16.05;9.60;;;5.30;97.60;;;;;;4927026;29;20134;-62
2021/11/28 09:49:28;;;;;;;15.15;9.82;;;5.40;97.50;;;;;;4930534;29;20060;-62
2021/11/28 09:51:56;;;;;;;12.73;8.52;;;5.40;97.50;;;;;;4927227;29;20066;-62
2021/11/28 09:54:23;;;;;;;12.55;8.80;;;5.40;97.50;;;;;;4924612;29;20039;-62
2021/11/28 09:56:50;;;;;;;14.10;8.82;;;5.40;97.50;;;;;;4924575;29;20032;-62
2021/11/28 09:59:17;;;;;;;14.63;9.07;;;5.40;97.50;;;;;;4924749;29;20051;-62
2021/11/28 10:01:43;;;;;;;17.05;10.13;;;5.40;97.50;;;;;;4925047;29;20042;-62
2021/11/28 10:04:08;;;;;;;16.35;9.00;;;5.50;97.60;;;;;;4925653;29;20059;-62
2021/11/28 10:06:35;;;;;;;15.10;8.73;;;5.50;97.60;;;;;;4928514;29;20443;-62
2021/11/28 10:09:05;;;;;;;17.30;8.82;;;5.60;97.50;;;;;;4922493;29;20031;-62
2021/11/28 10:11:40;;;;;;;20.13;10.15;;;5.60;97.40;;;;;;4924747;29;20075;-62
2021/11/28 10:14:12;;;;;;;15.65;8.07;;;5.60;97.30;;;;;;4929895;29;20411;-63
2021/11/28 10:16:39;;;;;;;13.93;8.68;;;5.60;97.30;;;;;;4923225;29;20515;-63
2021/11/28 10:19:07;;;;;;;13.73;8.25;;;5.60;97.30;;;;;;4923446;29;20400;-63
2021/11/28 10:21:33;;;;;;;14.07;8.93;;;5.70;97.30;;;;;;4925904;29;20491;-63
2021/11/28 10:24:11;;;;;;;15.90;8.43;;;5.70;97.20;;;;;;4923776;29;20059;-63
2021/11/28 10:27:01;;;;;;;13.85;8.25;;;5.70;97.20;;;;;;4927748;29;20459;-63
2021/11/28 10:29:38;;;;;;;16.67;8.05;;;5.70;97.20;;;;;;4932553;29;20059;-63
2021/11/28 10:32:06;;;;;;;14.68;9.38;;;5.80;97.20;;;;;;4942578;29;20406;-63
2021/11/28 10:34:43;;;;;;;14.50;8.85;;;5.80;97.20;;;;;;4932389;29;20027;-63
2021/11/28 10:37:17;;;;;;;16.60;8.77;;;5.80;97.10;;;;;;4939770;28;20388;-63
2021/11/28 10:39:54;;;;;;;16.20;8.40;;;5.80;97.20;;;;;;4929167;29;20459;-62
2021/11/28 10:42:23;;;;;;;14.40;8.82;;;5.90;97.10;;;;;;4920756;29;20991;-63
2021/11/28 10:45:03;;;;;;;16.63;9.27;;;5.90;97.20;;;;;;4922991;29;20044;-62
2021/11/28 10:47:32;;;;;;;17.10;9.90;;;6.00;97.10;;;;;;4934433;29;20519;-62
2021/11/28 10:50:11;;;;;;;17.48;9.23;;;6.00;97.10;;;;;;4923535;29;20099;-63
2021/11/28 10:52:38;;;;;;;16.38;8.98;;;6.00;97.10;;;;;;4929048;29;20521;-62
2021/11/28 10:55:25;;;;;;;16.92;10.05;;;6.00;97.00;;;;;;4929574;29;20106;-63
2021/11/28 10:58:07;;;;;;;16.27;9.00;;;6.10;97.00;;;;;;4922162;29;20027;-63
2021/11/28 11:00:35;;;;;;;16.58;9.38;;;6.20;96.90;;;;;;4923102;29;20152;-63
2021/11/28 11:03:29;;;;;;;16.73;8.73;;;6.20;96.80;;;;;;4924283;29;20523;-63
2021/11/28 11:06:13;;;;;;;14.65;8.20;;;6.30;96.70;;;;;;4928456;28;20043;-61
2021/11/28 11:08:39;;;;;;;13.35;8.00;;;6.30;96.50;;;;;;4924917;29;20692;-61
2021/11/28 11:11:07;;;;;;;15.30;8.57;;;6.30;96.60;;;;;;4925163;29;20040;-62
2021/11/28 11:13:50;;;;;;;18.35;8.98;;;6.40;96.50;;;;;;4928438;29;20043;-61
2021/11/28 11:16:42;;;;;;;14.20;8.88;;;6.30;96.50;;;;;;4929567;29;20055;-61
2021/11/28 11:19:26;;;;;;;16.50;9.15;;;6.30;96.50;;;;;;4927224;29;20052;-62
2021/11/28 11:21:59;;;;;;;12.90;7.82;;;6.30;96.60;;;;;;4924851;29;20035;-61
2021/11/28 11:24:24;;;;;;;13.48;8.32;;;6.30;96.50;;;;;;4921801;29;20027;-61
2021/11/28 11:26:50;;;;;;;13.35;8.05;;;6.40;96.50;;;;;;4927473;29;20059;-62
2021/11/28 11:29:16;;;;;;;16.05;8.07;;;6.40;96.40;;;;;;4924789;29;20110;-62
2021/11/28 11:31:52;;;;;;;19.08;7.78;;;6.30;96.30;;;;;;4931783;29;20089;-62
2021/11/28 11:34:31;;;;;;;15.55;7.65;;;6.30;96.30;;;;;;4934145;29;20060;-61
2021/11/28 11:37:13;;;;;;;13.50;7.65;;;6.30;96.30;;;;;;4933009;29;20583;-62
2021/11/28 11:39:41;;;;;;;14.70;7.97;;;6.40;96.30;;;;;;4934096;29;20028;-61
2021/11/28 11:42:07;;;;;;;14.82;8.13;;;6.40;96.20;;;;;;4932583;29;20502;-61
2021/11/28 11:44:33;;;;;;;14.70;8.43;;;6.50;96.20;;;;;;4933937;29;20038;-61
2021/11/28 11:47:00;;;;;;;14.50;7.45;;;6.50;96.20;;;;;;4932238;29;20055;-61
2021/11/28 11:49:27;;;;;;;14.52;9.02;;;6.50;96.20;;;;;;4932910;29;20027;-61
2021/11/28 11:51:54;;;;;;;20.20;8.35;;;6.60;96.10;;;;;;4931432;29;20040;-61
2021/11/28 11:54:21;;;;;;;14.38;8.52;;;6.60;96.10;;;;;;4932398;29;20024;-61
2021/11/28 11:56:54;;;;;;;12.50;7.53;;;6.60;96.00;;;;;;4946039;28;20363;-61
2021/11/28 11:59:35;;;;;;;17.38;8.60;;;6.60;96.10;;;;;;4933711;29;20032;-62
2021/11/28 12:02:04;;;;;;;14.30;9.02;;;6.60;96.00;;;;;;4932846;29;20059;-61
2021/11/28 12:04:45;;;;;;;17.25;8.38;;;6.60;96.00;;;;;;4933648;29;20060;-61
2021/11/28 12:07:10;;;;;;;21.70;8.65;;;6.60;96.00;;;;;;4931164;29;20090;-62
2021/11/28 12:09:37;;;;;;;15.15;7.95;;;6.60;96.00;;;;;;4932796;29;20039;-61
2021/11/28 12:12:12;;;;;;;15.50;8.52;;;6.70;96.00;;;;;;4931057;29;20032;-61
2021/11/28 12:15:30;;;;;;;13.68;8.20;;;6.70;96.00;;;;;;4933954;29;20064;-61
2021/11/28 12:17:57;;;;;;;15.38;8.40;;;6.70;96.00;;;;;;4919812;29;20107;-61
2021/11/28 12:20:49;;;;;;;15.15;8.80;;;6.80;96.00;;;;;;4933682;29;20035;-61
2021/11/28 12:23:43;;;;;;;16.92;8.38;;;6.80;95.90;;;;;;4933345;29;20383;-61
2021/11/28 12:26:33;;;;;;;19.58;8.60;;;6.80;95.80;;;;;;4932552;29;20040;-61
2021/11/28 12:29:08;;;;;;;17.73;8.60;;;6.80;95.90;;;;;;4930561;29;20043;-61
2021/11/28 12:31:38;;;;;;;13.35;8.32;;;6.80;95.80;;;;;;4931898;29;20035;-61
2021/11/28 12:34:11;;;;;;;16.40;8.70;;;6.80;95.80;;;;;;4932973;29;20583;-61
2021/11/28 12:36:52;;;;;;;16.90;8.43;;;6.80;95.80;;;;;;4932618;29;20041;-62
2021/11/28 12:39:21;;;;;;;14.95;7.78;;;6.80;95.70;;;;;;4947979;29;20460;-61
2021/11/28 12:41:48;;;;;;;13.05;8.18;;;6.80;95.70;;;;;;4932130;29;20059;-61
2021/11/28 12:44:16;;;;;;;13.32;8.07;;;6.80;95.60;;;;;;4932735;29;20027;-62
2021/11/28 12:46:46;;;;;;;17.88;8.57;;;6.80;95.50;;;;;;4931345;29;20044;-61
2021/11/28 12:49:30;;;;;;;16.15;8.35;;;6.80;95.50;;;;;;4934743;29;20087;-62
2021/11/28 12:52:16;;;;;;;15.23;7.97;;;6.80;95.50;;;;;;4935743;29;20036;-61
2021/11/28 12:54:43;;;;;;;12.57;7.97;;;6.90;95.50;;;;;;4936485;29;20020;-61
2021/11/28 12:57:18;;;;;;;12.38;7.47;;;6.90;95.40;;;;;;4935600;29;20047;-61